sensor_id;sensor_type;location;lat;lon;timestamp;temperature;humidity
17348;DHT22;8791;50.876;4.342;2023-04-25T00:01:13;9.60;99.90
17348;DHT22;8791;50.876;4.342;2023-04-25T00:03:40;9.70;99.90
17348;DHT22;8791;50.876;4.342;2023-04-25T00:06:08;9.80;99.90
17348;DHT22;8791;50.876;4.342;2023-04-25T00:08:35;9.70;99.90
17348;DHT22;8791;50.876;4.342;2023-04-25T00:11:02;9.10;99.90
17348;DHT22;8791;50.876;4.342;2023-04-25T00:13:29;9.10;99.90
17348;DHT22;8791;50.876;4.342;2023-04-25T00:15:56;9.20;99.90
17348;DHT22;8791;50.876;4.342;2023-04-25T00:18:24;9.30;99.90
17348;DHT22;8791;50.876;4.342;2023-04-25T00:20:51;9.30;99.90
17348;DHT22;8791;50.876;4.342;2023-04-25T00:23:19;9.20;99.90
17348;DHT22;8791;50.876;4.342;2023-04-25T00:25:49;9.10;99.90
17348;DHT22;8791;50.876;4.342;2023-04-25T00:28:16;8.90;99.90
17348;DHT22;8791;50.876;4.342;2023-04-25T00:30:43;8.90;99.90
17348;DHT22;8791;50.876;4.342;2023-04-25T00:33:10;9.10;99.90
17348;DHT22;8791;50.876;4.342;2023-04-25T00:35:38;9.20;99.90
17348;DHT22;8791;50.876;4.342;2023-04-25T00:38:05;9.30;99.90
17348;DHT22;8791;50.876;4.342;2023-04-25T00:40:33;9.40;99.90
17348;DHT22;8791;50.876;4.342;2023-04-25T00:43:00;9.40;99.90
17348;DHT22;8791;50.876;4.342;2023-04-25T00:45:28;9.40;99.90
17348;DHT22;8791;50.876;4.342;2023-04-25T00:47:56;9.50;99.90
17348;DHT22;8791;50.876;4.342;2023-04-25T00:50:23;9.40;99.90
17348;DHT22;8791;50.876;4.342;2023-04-25T00:52:50;9.40;99.90
17348;DHT22;8791;50.876;4.342;2023-04-25T00:55:19;9.50;99.90
17348;DHT22;8791;50.876;4.342;2023-04-25T00:57:47;9.50;99.90
17348;DHT22;8791;50.876;4.342;2023-04-25T01:00:15;9.50;99.90
17348;DHT22;8791;50.876;4.342;2023-04-25T01:02:42;9.60;99.90
17348;DHT22;8791;50.876;4.342;2023-04-25T01:05:10;9.50;99.90
17348;DHT22;8791;50.876;4.342;2023-04-25T01:07:37;9.40;99.90
17348;DHT22;8791;50.876;4.342;2023-04-25T01:10:05;9.40;99.90
17348;DHT22;8791;50.876;4.342;2023-04-25T01:12:33;9.50;99.90
17348;DHT22;8791;50.876;4.342;2023-04-25T01:15:02;9.60;99.90
17348;DHT22;8791;50.876;4.342;2023-04-25T01:17:29;9.60;99.90
17348;DHT22;8791;50.876;4.342;2023-04-25T01:19:57;9.50;99.90
17348;DHT22;8791;50.876;4.342;2023-04-25T01:22:25;9.40;99.90
17348;DHT22;8791;50.876;4.342;2023-04-25T01:24:52;9.40;99.90
17348;DHT22;8791;50.876;4.342;2023-04-25T01:27:20;9.40;99.90
17348;DHT22;8791;50.876;4.342;2023-04-25T01:29:48;9.40;99.90
17348;DHT22;8791;50.876;4.342;2023-04-25T01:32:16;9.50;99.90
17348;DHT22;8791;50.876;4.342;2023-04-25T01:34:43;9.40;99.90
17348;DHT22;8791;50.876;4.342;2023-04-25T01:37:10;9.40;99.90
17348;DHT22;8791;50.876;4.342;2023-04-25T01:39:39;9.10;99.90
17348;DHT22;8791;50.876;4.342;2023-04-25T01:42:06;9.10;99.90
17348;DHT22;8791;50.876;4.342;2023-04-25T01:44:32;9.00;99.90
17348;DHT22;8791;50.876;4.342;2023-04-25T01:46:59;8.90;99.90
17348;DHT22;8791;50.876;4.342;2023-04-25T01:49:26;8.60;99.90
17348;DHT22;8791;50.876;4.342;2023-04-25T01:51:53;8.50;99.90
17348;DHT22;8791;50.876;4.342;2023-04-25T01:54:21;8.70;99.90
17348;DHT22;8791;50.876;4.342;2023-04-25T01:56:51;8.70;99.90
17348;DHT22;8791;50.876;4.342;2023-04-25T01:59:18;8.70;99.90
17348;DHT22;8791;50.876;4.342;2023-04-25T02:01:47;8.60;99.90
17348;DHT22;8791;50.876;4.342;2023-04-25T02:04:14;8.50;99.90
17348;DHT22;8791;50.876;4.342;2023-04-25T02:06:41;8.50;99.90
17348;DHT22;8791;50.876;4.342;2023-04-25T02:09:08;8.60;99.90
17348;DHT22;8791;50.876;4.342;2023-04-25T02:11:35;8.60;99.90
17348;DHT22;8791;50.876;4.342;2023-04-25T02:14:03;8.50;99.90
17348;DHT22;8791;50.876;4.342;2023-04-25T02:16:30;8.20;99.90
17348;DHT22;8791;50.876;4.342;2023-04-25T02:18:57;8.20;99.90
17348;DHT22;8791;50.876;4.342;2023-04-25T02:21:24;8.10;99.90
17348;DHT22;8791;50.876;4.342;2023-04-25T02:23:52;8.10;99.90
17348;DHT22;8791;50.876;4.342;2023-04-25T02:26:19;8.20;99.90
17348;DHT22;8791;50.876;4.342;2023-04-25T02:28:49;8.30;99.90
17348;DHT22;8791;50.876;4.342;2023-04-25T02:31:18;8.40;99.90
17348;DHT22;8791;50.876;4.342;2023-04-25T02:33:47;8.50;99.90
17348;DHT22;8791;50.876;4.342;2023-04-25T02:36:14;8.40;99.90
17348;DHT22;8791;50.876;4.342;2023-04-25T02:38:41;8.60;99.90
17348;DHT22;8791;50.876;4.342;2023-04-25T02:41:07;8.40;99.90
17348;DHT22;8791;50.876;4.342;2023-04-25T02:43:35;8.40;99.90
17348;DHT22;8791;50.876;4.342;2023-04-25T02:46:02;8.30;99.90
17348;DHT22;8791;50.876;4.342;2023-04-25T02:48:30;8.20;99.90
17348;DHT22;8791;50.876;4.342;2023-04-25T02:50:57;8.00;99.90
17348;DHT22;8791;50.876;4.342;2023-04-25T02:53:24;8.10;99.90
17348;DHT22;8791;50.876;4.342;2023-04-25T02:55:51;8.20;99.90
17348;DHT22;8791;50.876;4.342;2023-04-25T02:58:18;8.40;99.90
17348;DHT22;8791;50.876;4.342;2023-04-25T03:00:45;8.20;99.90
17348;DHT22;8791;50.876;4.342;2023-04-25T03:03:12;8.40;99.90
17348;DHT22;8791;50.876;4.342;2023-04-25T03:05:41;8.30;99.90
17348;DHT22;8791;50.876;4.342;2023-04-25T03:08:09;8.20;99.90
17348;DHT22;8791;50.876;4.342;2023-04-25T03:10:36;8.00;99.90
17348;DHT22;8791;50.876;4.342;2023-04-25T03:13:02;7.90;99.90
17348;DHT22;8791;50.876;4.342;2023-04-25T03:15:30;8.00;99.90
17348;DHT22;8791;50.876;4.342;2023-04-25T03:17:56;8.10;99.90
17348;DHT22;8791;50.876;4.342;2023-04-25T03:20:24;8.10;99.90
17348;DHT22;8791;50.876;4.342;2023-04-25T03:22:52;8.20;99.90
17348;DHT22;8791;50.876;4.342;2023-04-25T03:25:19;8.10;99.90
17348;DHT22;8791;50.876;4.342;2023-04-25T03:27:46;8.10;99.90
17348;DHT22;8791;50.876;4.342;2023-04-25T03:30:13;8.10;99.90
17348;DHT22;8791;50.876;4.342;2023-04-25T03:32:40;8.00;99.90
17348;DHT22;8791;50.876;4.342;2023-04-25T03:35:08;8.00;99.90
17348;DHT22;8791;50.876;4.342;2023-04-25T03:37:35;7.90;99.90
17348;DHT22;8791;50.876;4.342;2023-04-25T03:40:04;8.00;99.90
17348;DHT22;8791;50.876;4.342;2023-04-25T03:42:31;7.90;99.90
17348;DHT22;8791;50.876;4.342;2023-04-25T03:44:58;7.90;99.90
17348;DHT22;8791;50.876;4.342;2023-04-25T03:47:26;7.80;99.90
17348;DHT22;8791;50.876;4.342;2023-04-25T03:49:53;7.80;99.90
17348;DHT22;8791;50.876;4.342;2023-04-25T03:52:20;8.00;99.90
17348;DHT22;8791;50.876;4.342;2023-04-25T03:54:47;7.90;99.90
17348;DHT22;8791;50.876;4.342;2023-04-25T03:57:15;7.90;99.90
17348;DHT22;8791;50.876;4.342;2023-04-25T03:59:42;7.70;99.90
17348;DHT22;8791;50.876;4.342;2023-04-25T04:02:09;7.60;99.90
17348;DHT22;8791;50.876;4.342;2023-04-25T04:04:36;7.60;99.90
17348;DHT22;8791;50.876;4.342;2023-04-25T04:07:04;7.60;99.90
17348;DHT22;8791;50.876;4.342;2023-04-25T04:09:31;7.70;99.90
17348;DHT22;8791;50.876;4.342;2023-04-25T04:11:59;7.90;99.90
17348;DHT22;8791;50.876;4.342;2023-04-25T04:14:28;7.90;99.90
17348;DHT22;8791;50.876;4.342;2023-04-25T04:16:55;8.10;99.90
17348;DHT22;8791;50.876;4.342;2023-04-25T04:19:22;8.20;99.90
17348;DHT22;8791;50.876;4.342;2023-04-25T04:21:49;8.20;99.90
17348;DHT22;8791;50.876;4.342;2023-04-25T04:24:16;8.40;99.90
17348;DHT22;8791;50.876;4.342;2023-04-25T04:26:43;8.40;99.90
17348;DHT22;8791;50.876;4.342;2023-04-25T04:29:11;8.30;99.90
17348;DHT22;8791;50.876;4.342;2023-04-25T04:31:48;8.00;99.90
17348;DHT22;8791;50.876;4.342;2023-04-25T04:34:16;7.90;99.90
17348;DHT22;8791;50.876;4.342;2023-04-25T04:36:43;7.80;99.90
17348;DHT22;8791;50.876;4.342;2023-04-25T04:39:11;7.70;99.90
17348;DHT22;8791;50.876;4.342;2023-04-25T04:41:39;7.80;99.90
17348;DHT22;8791;50.876;4.342;2023-04-25T04:44:06;7.70;99.90
17348;DHT22;8791;50.876;4.342;2023-04-25T04:46:34;7.70;99.90
17348;DHT22;8791;50.876;4.342;2023-04-25T04:49:05;7.90;99.90
17348;DHT22;8791;50.876;4.342;2023-04-25T04:51:32;7.90;99.90
17348;DHT22;8791;50.876;4.342;2023-04-25T04:53:59;7.90;99.90
17348;DHT22;8791;50.876;4.342;2023-04-25T04:56:28;7.70;99.90
17348;DHT22;8791;50.876;4.342;2023-04-25T04:58:56;7.70;99.90
17348;DHT22;8791;50.876;4.342;2023-04-25T05:01:24;7.70;99.90
17348;DHT22;8791;50.876;4.342;2023-04-25T05:03:51;7.40;99.90
17348;DHT22;8791;50.876;4.342;2023-04-25T05:06:23;7.30;99.90
17348;DHT22;8791;50.876;4.342;2023-04-25T05:08:50;7.20;99.90
17348;DHT22;8791;50.876;4.342;2023-04-25T05:11:18;7.30;99.90
17348;DHT22;8791;50.876;4.342;2023-04-25T05:13:46;7.20;99.90
17348;DHT22;8791;50.876;4.342;2023-04-25T05:16:14;7.30;99.90
17348;DHT22;8791;50.876;4.342;2023-04-25T05:18:41;7.50;99.90
17348;DHT22;8791;50.876;4.342;2023-04-25T05:21:08;7.50;99.90
17348;DHT22;8791;50.876;4.342;2023-04-25T05:23:36;7.50;99.90
17348;DHT22;8791;50.876;4.342;2023-04-25T05:26:04;7.60;99.90
17348;DHT22;8791;50.876;4.342;2023-04-25T05:28:31;7.70;99.90
17348;DHT22;8791;50.876;4.342;2023-04-25T05:30:58;7.80;99.90
17348;DHT22;8791;50.876;4.342;2023-04-25T05:33:25;7.80;99.90
17348;DHT22;8791;50.876;4.342;2023-04-25T05:35:52;7.90;99.90
17348;DHT22;8791;50.876;4.342;2023-04-25T05:38:19;8.00;99.90
17348;DHT22;8791;50.876;4.342;2023-04-25T05:40:48;8.00;99.90
17348;DHT22;8791;50.876;4.342;2023-04-25T05:43:15;8.00;99.90
17348;DHT22;8791;50.876;4.342;2023-04-25T05:45:42;8.00;99.90
17348;DHT22;8791;50.876;4.342;2023-04-25T05:48:09;8.10;99.90
17348;DHT22;8791;50.876;4.342;2023-04-25T05:50:36;8.00;99.90
17348;DHT22;8791;50.876;4.342;2023-04-25T05:53:03;7.90;99.90
17348;DHT22;8791;50.876;4.342;2023-04-25T05:55:31;8.00;99.90
17348;DHT22;8791;50.876;4.342;2023-04-25T05:58:00;8.00;99.90
17348;DHT22;8791;50.876;4.342;2023-04-25T06:00:27;7.90;99.90
17348;DHT22;8791;50.876;4.342;2023-04-25T06:02:54;7.90;99.90
17348;DHT22;8791;50.876;4.342;2023-04-25T06:05:21;8.10;99.90
17348;DHT22;8791;50.876;4.342;2023-04-25T06:07:48;8.10;99.90
17348;DHT22;8791;50.876;4.342;2023-04-25T06:10:15;8.30;99.90
17348;DHT22;8791;50.876;4.342;2023-04-25T06:12:42;8.40;99.90
17348;DHT22;8791;50.876;4.342;2023-04-25T06:15:11;8.40;99.90
17348;DHT22;8791;50.876;4.342;2023-04-25T06:17:38;8.20;99.90
17348;DHT22;8791;50.876;4.342;2023-04-25T06:20:06;8.10;99.90
17348;DHT22;8791;50.876;4.342;2023-04-25T06:22:34;8.30;99.90
17348;DHT22;8791;50.876;4.342;2023-04-25T06:25:01;8.20;99.90
17348;DHT22;8791;50.876;4.342;2023-04-25T06:27:29;8.40;99.90
17348;DHT22;8791;50.876;4.342;2023-04-25T06:29:56;8.20;99.90
17348;DHT22;8791;50.876;4.342;2023-04-25T06:32:25;8.30;99.90
17348;DHT22;8791;50.876;4.342;2023-04-25T06:34:53;8.50;99.90
17348;DHT22;8791;50.876;4.342;2023-04-25T06:37:20;8.70;99.90
17348;DHT22;8791;50.876;4.342;2023-04-25T06:39:47;8.80;99.90
17348;DHT22;8791;50.876;4.342;2023-04-25T06:42:14;8.70;99.90
17348;DHT22;8791;50.876;4.342;2023-04-25T06:44:41;8.60;99.90
17348;DHT22;8791;50.876;4.342;2023-04-25T06:47:08;8.60;99.90
17348;DHT22;8791;50.876;4.342;2023-04-25T06:49:37;8.60;99.90
17348;DHT22;8791;50.876;4.342;2023-04-25T06:52:04;8.60;99.90
17348;DHT22;8791;50.876;4.342;2023-04-25T06:54:31;8.60;99.90
17348;DHT22;8791;50.876;4.342;2023-04-25T06:56:59;8.70;99.90
17348;DHT22;8791;50.876;4.342;2023-04-25T06:59:27;8.90;99.90
17348;DHT22;8791;50.876;4.342;2023-04-25T07:01:55;8.70;99.90
17348;DHT22;8791;50.876;4.342;2023-04-25T07:04:22;8.80;99.90
17348;DHT22;8791;50.876;4.342;2023-04-25T07:06:50;8.70;99.90
17348;DHT22;8791;50.876;4.342;2023-04-25T07:09:17;9.00;99.90
17348;DHT22;8791;50.876;4.342;2023-04-25T07:11:44;9.00;99.90
17348;DHT22;8791;50.876;4.342;2023-04-25T07:14:11;9.10;99.90
17348;DHT22;8791;50.876;4.342;2023-04-25T07:16:38;9.10;99.90
17348;DHT22;8791;50.876;4.342;2023-04-25T07:19:05;9.20;99.90
17348;DHT22;8791;50.876;4.342;2023-04-25T07:21:33;9.00;99.90
17348;DHT22;8791;50.876;4.342;2023-04-25T07:24:03;8.90;99.90
17348;DHT22;8791;50.876;4.342;2023-04-25T07:26:31;9.00;99.90
17348;DHT22;8791;50.876;4.342;2023-04-25T07:28:58;9.10;99.90
17348;DHT22;8791;50.876;4.342;2023-04-25T07:31:25;9.20;99.90
17348;DHT22;8791;50.876;4.342;2023-04-25T07:33:52;9.10;99.90
17348;DHT22;8791;50.876;4.342;2023-04-25T07:36:19;9.30;99.90
17348;DHT22;8791;50.876;4.342;2023-04-25T07:38:47;9.20;99.90
17348;DHT22;8791;50.876;4.342;2023-04-25T07:41:15;9.20;99.90
17348;DHT22;8791;50.876;4.342;2023-04-25T07:43:42;9.20;99.90
17348;DHT22;8791;50.876;4.342;2023-04-25T07:46:09;9.20;99.90
17348;DHT22;8791;50.876;4.342;2023-04-25T07:48:36;9.30;99.90
17348;DHT22;8791;50.876;4.342;2023-04-25T07:51:03;9.50;99.90
17348;DHT22;8791;50.876;4.342;2023-04-25T07:56:07;9.80;99.90
17348;DHT22;8791;50.876;4.342;2023-04-25T07:58:36;9.50;99.90
17348;DHT22;8791;50.876;4.342;2023-04-25T08:01:03;9.50;99.90
17348;DHT22;8791;50.876;4.342;2023-04-25T08:03:30;9.90;99.90
17348;DHT22;8791;50.876;4.342;2023-04-25T08:05:57;10.10;99.90
17348;DHT22;8791;50.876;4.342;2023-04-25T08:08:24;10.20;99.90
17348;DHT22;8791;50.876;4.342;2023-04-25T08:10:51;9.90;99.90
17348;DHT22;8791;50.876;4.342;2023-04-25T08:13:18;9.90;99.90
17348;DHT22;8791;50.876;4.342;2023-04-25T08:15:46;9.90;99.90
17348;DHT22;8791;50.876;4.342;2023-04-25T08:18:13;9.90;99.90
17348;DHT22;8791;50.876;4.342;2023-04-25T08:20:40;9.80;99.90
17348;DHT22;8791;50.876;4.342;2023-04-25T08:23:07;10.00;99.90
17348;DHT22;8791;50.876;4.342;2023-04-25T08:25:36;10.20;99.90
17348;DHT22;8791;50.876;4.342;2023-04-25T08:28:03;10.00;99.90
17348;DHT22;8791;50.876;4.342;2023-04-25T08:30:30;9.90;99.90
17348;DHT22;8791;50.876;4.342;2023-04-25T08:32:58;10.00;99.90
17348;DHT22;8791;50.876;4.342;2023-04-25T08:35:25;9.90;99.90
17348;DHT22;8791;50.876;4.342;2023-04-25T08:37:52;9.90;99.90
17348;DHT22;8791;50.876;4.342;2023-04-25T08:40:19;9.90;99.90
17348;DHT22;8791;50.876;4.342;2023-04-25T08:42:53;10.30;99.90
17348;DHT22;8791;50.876;4.342;2023-04-25T08:45:20;10.60;99.90
17348;DHT22;8791;50.876;4.342;2023-04-25T08:47:47;10.70;99.90
17348;DHT22;8791;50.876;4.342;2023-04-25T08:50:19;10.80;99.90
17348;DHT22;8791;50.876;4.342;2023-04-25T08:52:50;10.90;99.90
17348;DHT22;8791;50.876;4.342;2023-04-25T08:55:18;11.00;99.90
17348;DHT22;8791;50.876;4.342;2023-04-25T08:57:46;11.30;99.90
17348;DHT22;8791;50.876;4.342;2023-04-25T09:00:14;11.50;99.90
17348;DHT22;8791;50.876;4.342;2023-04-25T09:02:42;11.20;99.90
17348;DHT22;8791;50.876;4.342;2023-04-25T09:05:10;11.20;99.90
17348;DHT22;8791;50.876;4.342;2023-04-25T09:07:40;11.10;99.90
17348;DHT22;8791;50.876;4.342;2023-04-25T09:10:08;10.80;99.90
17348;DHT22;8791;50.876;4.342;2023-04-25T09:12:36;10.80;99.90
17348;DHT22;8791;50.876;4.342;2023-04-25T09:15:05;10.80;99.90
17348;DHT22;8791;50.876;4.342;2023-04-25T09:17:32;10.10;99.90
17348;DHT22;8791;50.876;4.342;2023-04-25T09:20:06;10.00;99.90
17348;DHT22;8791;50.876;4.342;2023-04-25T09:22:34;10.00;99.90
17348;DHT22;8791;50.876;4.342;2023-04-25T09:25:07;9.90;99.90
17348;DHT22;8791;50.876;4.342;2023-04-25T09:27:35;9.70;99.90
17348;DHT22;8791;50.876;4.342;2023-04-25T09:30:02;9.90;99.90
17348;DHT22;8791;50.876;4.342;2023-04-25T09:32:29;10.00;99.90
17348;DHT22;8791;50.876;4.342;2023-04-25T09:34:56;10.00;99.90
17348;DHT22;8791;50.876;4.342;2023-04-25T09:37:25;9.70;99.90
17348;DHT22;8791;50.876;4.342;2023-04-25T09:39:54;9.80;99.90
17348;DHT22;8791;50.876;4.342;2023-04-25T09:42:24;10.00;99.90
17348;DHT22;8791;50.876;4.342;2023-04-25T09:44:53;10.00;99.90
17348;DHT22;8791;50.876;4.342;2023-04-25T09:47:21;10.00;99.90
17348;DHT22;8791;50.876;4.342;2023-04-25T09:49:49;10.20;99.90
17348;DHT22;8791;50.876;4.342;2023-04-25T09:52:19;10.40;99.90
17348;DHT22;8791;50.876;4.342;2023-04-25T09:54:47;10.50;99.90
17348;DHT22;8791;50.876;4.342;2023-04-25T09:57:15;10.70;99.90
17348;DHT22;8791;50.876;4.342;2023-04-25T09:59:45;10.90;99.90
17348;DHT22;8791;50.876;4.342;2023-04-25T10:02:14;10.90;99.90
17348;DHT22;8791;50.876;4.342;2023-04-25T10:04:42;10.80;99.90
17348;DHT22;8791;50.876;4.342;2023-04-25T10:07:12;10.60;99.90
17348;DHT22;8791;50.876;4.342;2023-04-25T10:09:39;10.50;99.90
17348;DHT22;8791;50.876;4.342;2023-04-25T10:12:06;10.50;99.90
17348;DHT22;8791;50.876;4.342;2023-04-25T10:14:34;10.80;99.90
17348;DHT22;8791;50.876;4.342;2023-04-25T10:17:03;10.80;99.90
17348;DHT22;8791;50.876;4.342;2023-04-25T10:19:30;10.80;99.90
17348;DHT22;8791;50.876;4.342;2023-04-25T10:22:06;10.90;99.90
17348;DHT22;8791;50.876;4.342;2023-04-25T10:24:34;11.30;99.90
17348;DHT22;8791;50.876;4.342;2023-04-25T10:27:02;11.60;99.90
17348;DHT22;8791;50.876;4.342;2023-04-25T10:29:29;11.70;99.90
17348;DHT22;8791;50.876;4.342;2023-04-25T10:31:57;11.60;99.90
17348;DHT22;8791;50.876;4.342;2023-04-25T10:34:38;11.80;99.90
17348;DHT22;8791;50.876;4.342;2023-04-25T10:37:08;11.70;99.90
17348;DHT22;8791;50.876;4.342;2023-04-25T10:39:36;11.60;99.90
17348;DHT22;8791;50.876;4.342;2023-04-25T10:42:04;11.60;99.90
17348;DHT22;8791;50.876;4.342;2023-04-25T10:44:32;11.80;99.90
17348;DHT22;8791;50.876;4.342;2023-04-25T10:47:00;11.70;99.90
17348;DHT22;8791;50.876;4.342;2023-04-25T10:49:33;11.40;99.90
17348;DHT22;8791;50.876;4.342;2023-04-25T10:52:17;11.30;99.90
17348;DHT22;8791;50.876;4.342;2023-04-25T10:54:48;11.30;99.90
17348;DHT22;8791;50.876;4.342;2023-04-25T10:57:32;11.30;99.90
17348;DHT22;8791;50.876;4.342;2023-04-25T11:00:10;11.00;99.90
17348;DHT22;8791;50.876;4.342;2023-04-25T11:02:41;10.80;99.90
17348;DHT22;8791;50.876;4.342;2023-04-25T11:05:20;10.50;99.90
17348;DHT22;8791;50.876;4.342;2023-04-25T11:07:50;10.40;99.90
17348;DHT22;8791;50.876;4.342;2023-04-25T11:10:18;10.50;99.90
17348;DHT22;8791;50.876;4.342;2023-04-25T11:12:46;10.60;99.90
17348;DHT22;8791;50.876;4.342;2023-04-25T11:15:13;10.80;99.90
17348;DHT22;8791;50.876;4.342;2023-04-25T11:17:40;10.50;99.90
17348;DHT22;8791;50.876;4.342;2023-04-25T11:20:09;10.50;99.90
17348;DHT22;8791;50.876;4.342;2023-04-25T11:22:39;10.60;99.90
17348;DHT22;8791;50.876;4.342;2023-04-25T11:25:08;10.90;99.90
17348;DHT22;8791;50.876;4.342;2023-04-25T11:27:38;10.80;99.90
17348;DHT22;8791;50.876;4.342;2023-04-25T11:30:14;11.00;99.90
17348;DHT22;8791;50.876;4.342;2023-04-25T11:32:41;11.00;99.90
17348;DHT22;8791;50.876;4.342;2023-04-25T11:35:09;10.80;99.90
17348;DHT22;8791;50.876;4.342;2023-04-25T11:37:36;10.80;99.90
17348;DHT22;8791;50.876;4.342;2023-04-25T11:40:08;10.90;99.90
17348;DHT22;8791;50.876;4.342;2023-04-25T11:42:37;11.20;99.90
17348;DHT22;8791;50.876;4.342;2023-04-25T11:45:06;11.00;99.90
17348;DHT22;8791;50.876;4.342;2023-04-25T11:47:34;10.80;99.90
17348;DHT22;8791;50.876;4.342;2023-04-25T11:50:01;10.80;99.90
17348;DHT22;8791;50.876;4.342;2023-04-25T11:52:36;11.00;99.90
17348;DHT22;8791;50.876;4.342;2023-04-25T11:55:07;11.40;99.90
17348;DHT22;8791;50.876;4.342;2023-04-25T11:57:34;11.50;99.90
17348;DHT22;8791;50.876;4.342;2023-04-25T12:00:09;11.50;99.90
17348;DHT22;8791;50.876;4.342;2023-04-25T12:02:40;11.40;99.90
17348;DHT22;8791;50.876;4.342;2023-04-25T12:05:07;11.30;99.90
17348;DHT22;8791;50.876;4.342;2023-04-25T12:07:34;11.10;99.90
17348;DHT22;8791;50.876;4.342;2023-04-25T12:10:07;11.10;99.90
17348;DHT22;8791;50.876;4.342;2023-04-25T12:12:34;11.30;99.90
17348;DHT22;8791;50.876;4.342;2023-04-25T12:15:12;11.80;99.90
17348;DHT22;8791;50.876;4.342;2023-04-25T12:17:41;11.90;99.90
17348;DHT22;8791;50.876;4.342;2023-04-25T12:20:10;12.20;99.90
17348;DHT22;8791;50.876;4.342;2023-04-25T12:22:37;12.20;99.90
17348;DHT22;8791;50.876;4.342;2023-04-25T12:25:05;12.10;99.90
17348;DHT22;8791;50.876;4.342;2023-04-25T12:27:35;12.20;99.90
17348;DHT22;8791;50.876;4.342;2023-04-25T12:30:03;12.10;99.90
17348;DHT22;8791;50.876;4.342;2023-04-25T12:32:30;12.10;99.90
17348;DHT22;8791;50.876;4.342;2023-04-25T12:34:57;11.60;99.90
17348;DHT22;8791;50.876;4.342;2023-04-25T12:37:24;11.60;99.90
17348;DHT22;8791;50.876;4.342;2023-04-25T12:39:51;11.80;99.90
17348;DHT22;8791;50.876;4.342;2023-04-25T12:42:18;12.30;99.90
17348;DHT22;8791;50.876;4.342;2023-04-25T12:44:46;12.40;99.90
17348;DHT22;8791;50.876;4.342;2023-04-25T12:47:14;12.40;99.90
17348;DHT22;8791;50.876;4.342;2023-04-25T12:49:40;12.40;99.90
17348;DHT22;8791;50.876;4.342;2023-04-25T12:52:07;12.00;99.90
17348;DHT22;8791;50.876;4.342;2023-04-25T12:54:34;11.70;99.90
17348;DHT22;8791;50.876;4.342;2023-04-25T12:57:01;11.70;99.90
17348;DHT22;8791;50.876;4.342;2023-04-25T12:59:28;11.70;99.90
17348;DHT22;8791;50.876;4.342;2023-04-25T13:01:57;11.70;99.90
17348;DHT22;8791;50.876;4.342;2023-04-25T13:04:24;11.40;99.90
17348;DHT22;8791;50.876;4.342;2023-04-25T13:06:51;11.40;99.90
17348;DHT22;8791;50.876;4.342;2023-04-25T13:09:17;11.50;99.90
17348;DHT22;8791;50.876;4.342;2023-04-25T13:11:44;11.50;99.90
17348;DHT22;8791;50.876;4.342;2023-04-25T13:14:11;11.80;99.90
17348;DHT22;8791;50.876;4.342;2023-04-25T13:16:38;11.80;99.90
17348;DHT22;8791;50.876;4.342;2023-04-25T13:19:06;11.90;99.90
17348;DHT22;8791;50.876;4.342;2023-04-25T13:21:36;12.00;99.90
17348;DHT22;8791;50.876;4.342;2023-04-25T13:24:04;11.90;99.90
17348;DHT22;8791;50.876;4.342;2023-04-25T13:26:31;11.70;99.90
17348;DHT22;8791;50.876;4.342;2023-04-25T13:28:58;11.70;99.90
17348;DHT22;8791;50.876;4.342;2023-04-25T13:31:26;11.80;99.90
17348;DHT22;8791;50.876;4.342;2023-04-25T13:33:55;12.10;99.90
17348;DHT22;8791;50.876;4.342;2023-04-25T13:36:24;12.40;99.90
17348;DHT22;8791;50.876;4.342;2023-04-25T13:38:51;12.50;99.90
17348;DHT22;8791;50.876;4.342;2023-04-25T13:41:18;12.60;99.90
17348;DHT22;8791;50.876;4.342;2023-04-25T13:43:46;12.50;99.90
17348;DHT22;8791;50.876;4.342;2023-04-25T13:46:14;12.30;99.90
17348;DHT22;8791;50.876;4.342;2023-04-25T13:48:41;11.80;99.90
17348;DHT22;8791;50.876;4.342;2023-04-25T13:51:13;11.50;99.90
17348;DHT22;8791;50.876;4.342;2023-04-25T13:53:42;11.50;99.90
17348;DHT22;8791;50.876;4.342;2023-04-25T13:56:09;11.30;99.90
17348;DHT22;8791;50.876;4.342;2023-04-25T13:58:37;11.20;99.90
17348;DHT22;8791;50.876;4.342;2023-04-25T14:01:04;10.90;99.90
17348;DHT22;8791;50.876;4.342;2023-04-25T14:03:31;10.90;99.90
17348;DHT22;8791;50.876;4.342;2023-04-25T14:05:58;11.10;99.90
17348;DHT22;8791;50.876;4.342;2023-04-25T14:08:25;11.00;99.90
17348;DHT22;8791;50.876;4.342;2023-04-25T14:10:53;11.00;99.90
17348;DHT22;8791;50.876;4.342;2023-04-25T14:13:20;10.90;99.90
17348;DHT22;8791;50.876;4.342;2023-04-25T14:15:47;10.90;99.90
17348;DHT22;8791;50.876;4.342;2023-04-25T14:18:14;11.00;99.90
17348;DHT22;8791;50.876;4.342;2023-04-25T14:20:40;11.10;99.90
17348;DHT22;8791;50.876;4.342;2023-04-25T14:23:07;11.30;99.90
17348;DHT22;8791;50.876;4.342;2023-04-25T14:25:34;11.30;99.90
17348;DHT22;8791;50.876;4.342;2023-04-25T14:28:03;11.40;99.90
17348;DHT22;8791;50.876;4.342;2023-04-25T14:30:30;11.40;99.90
17348;DHT22;8791;50.876;4.342;2023-04-25T14:32:57;11.50;99.90
17348;DHT22;8791;50.876;4.342;2023-04-25T14:35:24;11.40;99.90
17348;DHT22;8791;50.876;4.342;2023-04-25T14:37:51;11.50;99.90
17348;DHT22;8791;50.876;4.342;2023-04-25T14:40:19;11.60;99.90
17348;DHT22;8791;50.876;4.342;2023-04-25T14:42:48;11.70;99.90
17348;DHT22;8791;50.876;4.342;2023-04-25T14:45:17;11.70;99.90
17348;DHT22;8791;50.876;4.342;2023-04-25T14:47:43;11.80;99.90
17348;DHT22;8791;50.876;4.342;2023-04-25T14:50:11;11.80;99.90
17348;DHT22;8791;50.876;4.342;2023-04-25T14:52:38;11.80;99.90
17348;DHT22;8791;50.876;4.342;2023-04-25T14:55:05;11.80;99.90
17348;DHT22;8791;50.876;4.342;2023-04-25T14:57:32;11.60;99.90
17348;DHT22;8791;50.876;4.342;2023-04-25T15:00:00;11.60;99.90
17348;DHT22;8791;50.876;4.342;2023-04-25T15:02:28;11.30;99.90
17348;DHT22;8791;50.876;4.342;2023-04-25T15:04:55;11.10;99.90
17348;DHT22;8791;50.876;4.342;2023-04-25T15:07:22;11.10;99.90
17348;DHT22;8791;50.876;4.342;2023-04-25T15:09:49;11.10;99.90
17348;DHT22;8791;50.876;4.342;2023-04-25T15:12:16;11.40;99.90
17348;DHT22;8791;50.876;4.342;2023-04-25T15:14:43;11.60;99.90
17348;DHT22;8791;50.876;4.342;2023-04-25T15:17:10;11.60;99.90
17348;DHT22;8791;50.876;4.342;2023-04-25T15:19:40;11.20;99.90
17348;DHT22;8791;50.876;4.342;2023-04-25T15:22:07;10.70;99.90
17348;DHT22;8791;50.876;4.342;2023-04-25T15:24:34;10.60;99.90
17348;DHT22;8791;50.876;4.342;2023-04-25T15:27:01;10.60;99.90
17348;DHT22;8791;50.876;4.342;2023-04-25T15:29:29;10.60;99.90
17348;DHT22;8791;50.876;4.342;2023-04-25T15:31:57;11.00;99.90
17348;DHT22;8791;50.876;4.342;2023-04-25T15:34:23;11.00;99.90
17348;DHT22;8791;50.876;4.342;2023-04-25T15:36:52;11.00;99.90
17348;DHT22;8791;50.876;4.342;2023-04-25T15:39:18;11.00;99.90
17348;DHT22;8791;50.876;4.342;2023-04-25T15:41:46;11.20;99.90
17348;DHT22;8791;50.876;4.342;2023-04-25T15:44:13;11.50;99.90
17348;DHT22;8791;50.876;4.342;2023-04-25T15:46:40;12.00;99.90
17348;DHT22;8791;50.876;4.342;2023-04-25T15:49:06;13.00;99.90
17348;DHT22;8791;50.876;4.342;2023-04-25T15:51:34;13.90;99.90
17348;DHT22;8791;50.876;4.342;2023-04-25T15:54:02;14.70;99.90
17348;DHT22;8791;50.876;4.342;2023-04-25T15:56:30;14.50;99.90
17348;DHT22;8791;50.876;4.342;2023-04-25T15:58:57;14.40;99.90
17348;DHT22;8791;50.876;4.342;2023-04-25T16:01:24;14.70;99.90